Time;durP1;ratioP1;P1;durP2;ratioP2;P2;SDS_P1;SDS_P2;PMS_P1;PMS_P2;Temp;Humidity;BMP_temperature;BMP_pressure;BME280_temperature;BME280_humidity;BME280_pressure;Samples;Min_cycle;Max_cycle;Signal;HPM_P1;HPM_P2
2023/10/16 00:02:28;;;;;;;25.98;20.95;;;16.20;99.90;;;;;;5245289;28;20028;-75
2023/10/16 00:05:08;;;;;;;26.02;20.33;;;16.30;99.90;;;;;;5245161;28;20033;-76
2023/10/16 00:07:39;;;;;;;24.80;21.17;;;16.10;99.90;;;;;;5247042;28;20021;-75
2023/10/16 00:10:12;;;;;;;26.65;22.35;;;16.20;99.90;;;;;;5249597;28;20472;-75
2023/10/16 00:12:43;;;;;;;28.50;21.23;;;16.10;99.90;;;;;;5231433;28;20131;-75
2023/10/16 00:15:16;;;;;;;25.92;21.58;;;16.20;99.90;;;;;;5231253;28;20215;-75
2023/10/16 00:17:49;;;;;;;24.02;20.45;;;16.10;99.90;;;;;;5250021;28;20032;-78
2023/10/16 00:20:24;;;;;;;30.85;21.90;;;16.00;99.90;;;;;;5232528;28;20020;-78
2023/10/16 00:22:55;;;;;;;28.15;21.20;;;16.10;99.90;;;;;;5250476;28;20021;-75
2023/10/16 00:25:29;;;;;;;26.17;21.50;;;16.10;99.90;;;;;;5250459;28;20411;-76
2023/10/16 00:28:01;;;;;;;24.23;19.33;;;16.10;99.90;;;;;;5249875;28;20044;-75
2023/10/16 00:30:32;;;;;;;24.27;20.10;;;16.20;99.90;;;;;;5232411;28;20123;-75
2023/10/16 00:33:10;;;;;;;25.52;20.73;;;16.10;99.90;;;;;;5250109;28;20409;-74
2023/10/16 00:35:43;;;;;;;22.52;20.30;;;16.10;99.90;;;;;;5250187;28;20023;-75
2023/10/16 00:38:14;;;;;;;21.45;19.23;;;16.10;99.90;;;;;;5231986;28;20020;-75
2023/10/16 00:43:35;;;;;;;21.58;19.20;;;16.10;99.90;;;;;;5271137;28;20039;-74
2023/10/16 00:46:09;;;;;;;23.23;19.33;;;16.20;99.90;;;;;;5252787;28;20036;-75
2023/10/16 00:48:40;;;;;;;24.80;18.38;;;16.00;99.90;;;;;;5252855;28;20027;-76
2023/10/16 00:51:13;;;;;;;22.70;18.15;;;16.20;99.90;;;;;;5270831;28;20028;-75
2023/10/16 00:53:45;;;;;;;22.05;16.92;;;16.10;99.90;;;;;;5269982;28;20027;-75
2023/10/16 00:56:18;;;;;;;27.08;18.60;;;16.20;99.90;;;;;;5270096;28;20024;-74
2023/10/16 00:58:48;;;;;;;23.73;17.65;;;16.20;99.90;;;;;;5269317;28;20056;-74
2023/10/16 01:01:19;;;;;;;19.38;17.35;;;16.20;99.90;;;;;;5269405;28;20109;-74
2023/10/16 01:03:52;;;;;;;23.63;17.52;;;16.10;99.90;;;;;;5250841;28;20024;-74
2023/10/16 01:06:36;;;;;;;21.77;17.42;;;16.20;99.90;;;;;;5269343;28;20032;-74
2023/10/16 01:09:22;;;;;;;22.67;17.40;;;16.10;99.90;;;;;;5269300;28;20020;-74
2023/10/16 01:11:57;;;;;;;19.77;17.40;;;16.20;99.90;;;;;;5269562;28;20043;-74
2023/10/16 01:14:29;;;;;;;19.75;17.65;;;16.10;99.90;;;;;;5270586;28;20020;-74
2023/10/16 01:17:00;;;;;;;21.85;19.55;;;16.10;99.90;;;;;;5270162;28;20051;-74
2023/10/16 01:19:31;;;;;;;21.73;17.80;;;16.10;99.90;;;;;;5250991;28;20056;-78
2023/10/16 01:22:02;;;;;;;26.38;18.30;;;16.00;99.90;;;;;;5270562;28;20028;-75
2023/10/16 01:24:33;;;;;;;22.17;17.63;;;16.10;99.90;;;;;;5270121;28;20099;-74
2023/10/16 01:27:14;;;;;;;23.00;18.65;;;16.10;99.90;;;;;;5269781;28;20431;-80
2023/10/16 01:29:47;;;;;;;21.35;19.10;;;16.10;99.90;;;;;;5269920;28;20340;-74
2023/10/16 01:32:17;;;;;;;19.08;17.08;;;16.10;99.90;;;;;;5269844;28;20118;-74
2023/10/16 01:34:50;;;;;;;24.65;18.05;;;16.10;99.90;;;;;;5251535;28;20115;-74
2023/10/16 01:37:21;;;;;;;22.35;17.63;;;16.10;99.90;;;;;;5269778;28;20021;-75
2023/10/16 01:39:56;;;;;;;25.88;17.63;;;16.00;99.90;;;;;;5251576;28;20486;-74
2023/10/16 01:42:27;;;;;;;21.27;17.73;;;16.00;99.90;;;;;;5269716;28;20020;-74
2023/10/16 01:44:59;;;;;;;19.67;17.58;;;16.20;99.90;;;;;;5269225;28;20044;-74
2023/10/16 01:47:33;;;;;;;24.23;16.98;;;16.00;99.90;;;;;;5269763;28;20127;-74
2023/10/16 01:50:17;;;;;;;18.95;16.25;;;16.00;99.90;;;;;;5250892;28;20449;-75
2023/10/16 01:52:49;;;;;;;23.58;16.65;;;16.10;99.90;;;;;;5268855;28;20383;-75
2023/10/16 01:58:02;;;;;;;20.58;15.98;;;16.00;99.90;;;;;;5587710;23;20052;-75
2023/10/16 02:00:34;;;;;;;18.10;15.82;;;16.00;99.90;;;;;;5246696;28;20013;-73
2023/10/16 02:03:08;;;;;;;21.23;16.33;;;16.20;99.90;;;;;;5208779;28;20044;-73
2023/10/16 02:05:41;;;;;;;20.23;14.20;;;15.90;99.90;;;;;;5230880;28;20357;-73
2023/10/16 02:08:13;;;;;;;22.08;15.20;;;15.90;99.90;;;;;;5247765;28;20025;-73
2023/10/16 02:10:44;;;;;;;18.23;15.05;;;16.10;99.90;;;;;;5247850;28;20012;-73
2023/10/16 02:13:15;;;;;;;18.52;15.13;;;15.90;99.90;;;;;;5247984;28;20383;-73
2023/10/16 02:15:47;;;;;;;19.10;15.00;;;15.90;99.90;;;;;;5247978;28;20024;-80
2023/10/16 02:18:20;;;;;;;18.75;15.15;;;16.10;99.90;;;;;;5247989;28;20025;-74
2023/10/16 02:20:52;;;;;;;17.23;15.00;;;16.00;99.90;;;;;;5247897;28;20077;-73
2023/10/16 02:23:26;;;;;;;20.80;15.90;;;16.00;99.90;;;;;;5247811;28;20533;-73
2023/10/16 02:26:05;;;;;;;19.63;13.88;;;16.00;99.90;;;;;;5247672;28;20036;-73
2023/10/16 02:28:40;;;;;;;18.48;14.95;;;16.00;99.90;;;;;;5227251;28;20037;-73
2023/10/16 02:31:17;;;;;;;18.55;14.60;;;16.00;99.90;;;;;;5226898;28;20480;-76
2023/10/16 02:33:56;;;;;;;17.77;15.00;;;15.90;99.90;;;;;;5227091;28;20021;-75
2023/10/16 02:36:26;;;;;;;18.48;15.93;;;16.00;99.90;;;;;;5225812;28;20067;-73
2023/10/16 02:38:57;;;;;;;19.20;16.25;;;15.90;99.90;;;;;;5226934;28;20033;-74
2023/10/16 02:41:28;;;;;;;18.27;16.30;;;16.00;99.90;;;;;;5226577;28;20025;-77
2023/10/16 02:43:59;;;;;;;18.23;16.33;;;16.10;99.90;;;;;;5226905;28;20376;-73
2023/10/16 02:46:30;;;;;;;22.73;16.13;;;16.00;99.90;;;;;;5225794;28;20531;-74
2023/10/16 02:49:01;;;;;;;21.00;18.13;;;16.10;99.90;;;;;;5208391;28;20082;-73
2023/10/16 02:51:34;;;;;;;20.38;17.80;;;16.20;99.90;;;;;;5207801;28;20581;-74
2023/10/16 02:54:07;;;;;;;22.17;18.90;;;16.30;99.90;;;;;;5225070;28;20036;-74
2023/10/16 02:56:42;;;;;;;22.45;19.60;;;16.30;99.90;;;;;;5225075;28;20091;-77
2023/10/16 02:59:13;;;;;;;22.95;20.65;;;16.30;99.90;;;;;;5225426;28;20051;-73
2023/10/16 03:01:45;;;;;;;25.98;23.52;;;16.30;99.90;;;;;;5225214;28;20554;-73
2023/10/16 03:04:16;;;;;;;24.17;20.77;;;16.20;99.90;;;;;;5225678;28;20025;-74
2023/10/16 03:06:48;;;;;;;24.85;22.35;;;16.00;99.90;;;;;;5226356;28;20772;-74
2023/10/16 03:09:25;;;;;;;25.45;23.10;;;16.10;99.90;;;;;;5226660;28;20043;-80
2023/10/16 03:12:07;;;;;;;25.60;23.40;;;16.10;99.90;;;;;;5226690;28;20033;-74
2023/10/16 03:14:45;;;;;;;26.98;24.30;;;16.20;99.90;;;;;;5226805;28;20017;-73
2023/10/16 03:17:25;;;;;;;24.98;22.70;;;16.20;99.90;;;;;;5226499;28;20468;-75
2023/10/16 03:19:57;;;;;;;21.50;19.38;;;15.90;99.90;;;;;;5212836;28;20044;-77
2023/10/16 03:22:28;;;;;;;19.58;17.60;;;15.80;99.90;;;;;;5207598;28;20404;-74
2023/10/16 03:25:00;;;;;;;19.63;17.65;;;15.80;99.90;;;;;;5187649;28;20033;-74
2023/10/16 03:27:32;;;;;;;21.15;16.38;;;15.90;99.90;;;;;;5187915;28;20499;-75
2023/10/16 03:30:03;;;;;;;23.95;18.08;;;15.90;99.90;;;;;;5187496;28;20503;-74
2023/10/16 03:32:34;;;;;;;18.90;16.95;;;15.70;99.90;;;;;;5205476;28;20163;-73
2023/10/16 03:35:09;;;;;;;22.05;17.23;;;15.50;99.90;;;;;;5205242;28;20103;-72
2023/10/16 03:37:40;;;;;;;20.50;16.15;;;15.50;99.90;;;;;;5222300;28;20017;-73
2023/10/16 03:40:12;;;;;;;20.92;15.57;;;15.30;99.90;;;;;;5219802;28;20469;-73
2023/10/16 03:42:43;;;;;;;25.80;17.83;;;15.30;99.90;;;;;;5218679;28;20029;-74
2023/10/16 03:45:16;;;;;;;20.77;17.45;;;15.60;99.90;;;;;;5203955;28;20053;-74
2023/10/16 03:47:57;;;;;;;20.15;16.05;;;15.60;99.90;;;;;;5185323;28;20465;-76
2023/10/16 03:50:38;;;;;;;20.38;16.05;;;15.60;99.90;;;;;;5203296;28;20021;-76
2023/10/16 03:53:09;;;;;;;20.13;18.02;;;15.20;99.90;;;;;;5184886;28;20064;-73
2023/10/16 03:55:44;;;;;;;21.05;17.10;;;15.20;99.90;;;;;;5185691;28;20021;-74
2023/10/16 03:58:16;;;;;;;19.55;17.63;;;14.90;99.90;;;;;;5673758;23;20054;-74
2023/10/16 04:00:53;;;;;;;19.25;16.50;;;14.80;99.90;;;;;;5165838;28;20125;-74
2023/10/16 04:03:28;;;;;;;18.98;16.98;;;14.80;99.90;;;;;;5166431;28;20096;-74
2023/10/16 04:05:59;;;;;;;21.48;18.05;;;14.80;99.90;;;;;;5166847;28;20049;-73
2023/10/16 04:08:30;;;;;;;22.30;16.58;;;14.90;99.90;;;;;;5184644;28;20474;-79
2023/10/16 04:11:02;;;;;;;19.33;16.90;;;14.90;99.90;;;;;;5184540;28;20022;-82
2023/10/16 04:13:33;;;;;;;19.70;16.27;;;15.00;99.90;;;;;;5184521;28;20029;-81
2023/10/16 04:18:39;;;;;;;19.35;17.13;;;15.00;99.90;;;;;;5184585;28;20022;-74
2023/10/16 04:31:44;;;;;;;18.52;16.48;;;15.00;99.90;;;;;;5184851;28;20037;-75
2023/10/16 04:48:07;;;;;;;24.60;15.88;;;15.20;99.90;;;;;;5183237;28;20429;-75
2023/10/16 04:50:39;;;;;;;18.67;14.65;;;15.30;99.90;;;;;;5183140;28;20022;-74
2023/10/16 04:53:14;;;;;;;16.83;14.60;;;15.40;99.90;;;;;;5183063;28;20006;-74
2023/10/16 05:19:46;;;;;;;18.00;13.73;;;15.80;99.90;;;;;;5187700;28;19907;-74
2023/10/16 06:16:28;;;;;;;16.00;13.90;;;16.30;99.90;;;;;;5186152;28;20030;-74
2023/10/16 06:18:59;;;;;;;19.55;14.90;;;16.30;99.90;;;;;;5186361;28;20120;-75
2023/10/16 06:21:30;;;;;;;16.80;15.02;;;16.40;99.90;;;;;;5186030;28;20443;-75
2023/10/16 06:24:00;;;;;;;18.25;15.50;;;16.50;99.90;;;;;;5186000;28;20465;-73
2023/10/16 06:26:31;;;;;;;16.92;15.23;;;16.60;99.90;;;;;;5185955;28;20037;-74
2023/10/16 06:29:02;;;;;;;18.88;13.65;;;16.60;99.90;;;;;;5167666;28;20050;-75
2023/10/16 06:31:49;;;;;;;19.05;12.27;;;16.80;99.90;;;;;;5185226;28;20044;-74
2023/10/16 06:34:23;;;;;;;15.18;10.95;;;17.00;99.90;;;;;;5184708;28;20057;-74
2023/10/16 06:36:55;;;;;;;14.82;10.68;;;17.00;99.90;;;;;;5184829;28;20109;-74
2023/10/16 06:39:29;;;;;;;13.30;10.73;;;17.20;99.90;;;;;;5184745;28;20650;-74
2023/10/16 06:42:02;;;;;;;16.20;14.50;;;17.40;99.90;;;;;;5184664;28;20037;-74
2023/10/16 06:44:34;;;;;;;17.92;15.48;;;17.40;99.90;;;;;;5184540;28;20021;-74
2023/10/16 06:47:05;;;;;;;18.58;13.70;;;17.30;99.90;;;;;;5185108;28;20104;-74
2023/10/16 06:49:35;;;;;;;18.08;11.23;;;17.40;99.90;;;;;;5185465;28;20034;-74
2023/10/16 06:52:12;;;;;;;14.55;10.95;;;17.50;99.90;;;;;;5185576;28;20110;-79
2023/10/16 06:54:44;;;;;;;15.73;9.48;;;17.40;99.90;;;;;;5185522;28;20025;-74
2023/10/16 06:57:15;;;;;;;11.68;7.53;;;17.60;99.90;;;;;;5167754;28;20034;-74
2023/10/16 06:59:45;;;;;;;11.48;6.93;;;17.70;99.90;;;;;;5167527;28;20474;-74
2023/10/16 07:02:19;;;;;;;11.93;6.28;;;17.70;99.90;;;;;;5185483;28;20025;-74
2023/10/16 07:04:50;;;;;;;8.68;5.80;;;17.70;99.90;;;;;;5185769;28;20508;-74
2023/10/16 07:07:22;;;;;;;15.48;5.65;;;17.70;99.90;;;;;;5185706;28;20072;-75
2023/10/16 07:09:54;;;;;;;11.10;5.53;;;17.70;99.90;;;;;;5185506;28;20040;-74
2023/10/16 07:12:25;;;;;;;17.33;5.53;;;17.80;99.90;;;;;;5185337;28;20030;-74
2023/10/16 07:14:56;;;;;;;9.43;6.50;;;17.90;99.90;;;;;;5185308;28;20026;-74
2023/10/16 07:17:30;;;;;;;10.93;6.32;;;18.10;99.90;;;;;;5184696;28;20108;-74
2023/10/16 07:20:08;;;;;;;11.55;6.40;;;18.10;99.90;;;;;;5185300;28;20105;-74
2023/10/16 07:22:39;;;;;;;8.23;6.57;;;18.00;99.90;;;;;;5185156;28;20030;-74
2023/10/16 07:25:25;;;;;;;9.50;6.35;;;18.00;99.90;;;;;;5184355;28;20052;-73
2023/10/16 07:27:58;;;;;;;8.98;5.97;;;18.00;99.90;;;;;;5184162;28;20076;-74
2023/10/16 07:30:33;;;;;;;12.02;6.20;;;18.10;99.90;;;;;;5184281;28;20041;-74
2023/10/16 07:33:04;;;;;;;6.60;5.60;;;18.20;99.90;;;;;;5166349;28;20038;-77
2023/10/16 07:35:35;;;;;;;10.77;6.15;;;18.20;99.90;;;;;;5183720;28;20092;-74
2023/10/16 07:38:09;;;;;;;12.10;5.50;;;18.00;99.90;;;;;;5183715;28;20107;-74
2023/10/16 07:40:40;;;;;;;9.77;6.20;;;18.00;99.90;;;;;;5166081;28;20053;-74
2023/10/16 07:43:11;;;;;;;9.48;5.45;;;17.90;99.90;;;;;;5184645;28;20528;-74
2023/10/16 07:45:45;;;;;;;8.38;5.03;;;17.80;99.90;;;;;;5185246;28;20497;-74
2023/10/16 07:48:20;;;;;;;7.05;5.43;;;17.60;99.90;;;;;;5184950;28;20105;-74
2023/10/16 07:50:51;;;;;;;13.07;6.32;;;17.70;99.90;;;;;;5184768;28;20010;-74
2023/10/16 07:53:22;;;;;;;7.25;5.55;;;17.70;99.90;;;;;;5184700;28;20036;-74
2023/10/16 07:55:53;;;;;;;7.88;5.88;;;17.70;99.90;;;;;;5184676;28;20095;-73
2023/10/16 07:58:24;;;;;;;9.57;5.70;;;17.60;99.90;;;;;;5184046;28;20096;-74
2023/10/16 08:03:37;;;;;;;9.68;5.70;;;17.60;99.90;;;;;;5184690;28;20119;-74
2023/10/16 08:06:26;;;;;;;10.88;5.53;;;17.50;99.90;;;;;;5166835;28;20120;-74
2023/10/16 08:11:46;;;;;;;8.07;6.00;;;17.30;99.90;;;;;;5184769;28;20072;-78
2023/10/16 08:14:18;;;;;;;9.77;5.78;;;17.30;99.90;;;;;;5166746;28;20074;-74
2023/10/16 08:16:56;;;;;;;9.25;5.55;;;17.10;99.90;;;;;;5184533;28;20381;-74
2023/10/16 08:19:31;;;;;;;10.65;6.35;;;17.10;99.90;;;;;;5184364;28;20370;-73
2023/10/16 08:22:07;;;;;;;8.43;5.53;;;17.10;99.90;;;;;;5184215;28;20030;-74
2023/10/16 08:24:43;;;;;;;8.80;5.97;;;17.10;99.90;;;;;;5183230;28;20386;-74
2023/10/16 08:27:23;;;;;;;9.77;6.00;;;17.00;99.90;;;;;;5165362;28;20036;-74
2023/10/16 08:29:54;;;;;;;16.23;6.20;;;17.00;99.90;;;;;;5168913;28;20100;-74
2023/10/16 08:32:53;;;;;;;11.98;5.57;;;16.80;99.90;;;;;;5186336;28;20362;-74
2023/10/16 08:35:24;;;;;;;10.75;5.70;;;16.80;99.90;;;;;;5186442;28;20010;-74
2023/10/16 08:37:57;;;;;;;10.48;5.28;;;16.70;99.90;;;;;;5187197;28;20026;-73
2023/10/16 08:40:35;;;;;;;10.50;6.35;;;16.60;99.90;;;;;;5170488;28;20109;-80
2023/10/16 08:43:08;;;;;;;7.55;5.45;;;16.60;99.90;;;;;;5188393;28;20053;-74
2023/10/16 08:45:49;;;;;;;7.90;5.75;;;16.60;99.90;;;;;;5170327;28;20026;-75
2023/10/16 08:48:22;;;;;;;11.45;6.65;;;16.60;99.90;;;;;;5187954;28;20037;-74
2023/10/16 08:50:57;;;;;;;12.52;6.25;;;16.50;99.90;;;;;;5187955;28;20058;-74
2023/10/16 08:53:32;;;;;;;8.57;6.47;;;16.60;99.90;;;;;;5187431;28;20620;-74
2023/10/16 08:56:07;;;;;;;10.00;6.75;;;16.50;99.90;;;;;;5187279;28;20358;-74
2023/10/16 08:58:44;;;;;;;12.20;6.40;;;16.40;99.90;;;;;;5187263;28;20489;-74
2023/10/16 09:01:16;;;;;;;7.35;6.50;;;16.50;99.90;;;;;;5187634;28;20026;-73
2023/10/16 09:04:05;;;;;;;16.27;6.40;;;16.30;99.90;;;;;;5187607;28;20030;-73
2023/10/16 09:06:37;;;;;;;9.10;6.60;;;16.30;99.90;;;;;;5187642;28;20302;-73
2023/10/16 09:09:16;;;;;;;9.32;6.78;;;16.40;99.90;;;;;;5187690;28;20056;-73
2023/10/16 09:11:50;;;;;;;7.78;7.00;;;16.30;99.90;;;;;;5169955;28;20030;-73
2023/10/16 09:14:20;;;;;;;11.27;7.18;;;16.30;99.90;;;;;;5187394;28;20026;-74
2023/10/16 09:16:51;;;;;;;7.25;6.57;;;16.40;99.90;;;;;;5169349;28;20096;-74
2023/10/16 09:19:33;;;;;;;15.77;6.68;;;16.40;99.90;;;;;;5169214;28;20435;-74
2023/10/16 09:22:08;;;;;;;12.65;6.15;;;16.40;99.90;;;;;;5186211;28;20106;-78
2023/10/16 09:24:45;;;;;;;8.05;6.10;;;16.20;99.90;;;;;;5186254;28;20366;-73
2023/10/16 09:27:22;;;;;;;8.98;6.57;;;16.10;99.90;;;;;;5185862;28;20088;-74
2023/10/16 09:29:57;;;;;;;7.72;6.78;;;16.10;99.90;;;;;;5186077;28;20030;-74
2023/10/16 09:32:40;;;;;;;7.65;6.95;;;16.00;99.90;;;;;;5168603;28;20053;-74
2023/10/16 09:35:13;;;;;;;9.77;6.93;;;15.90;99.90;;;;;;5169129;28;20064;-74
2023/10/16 09:37:52;;;;;;;8.23;5.85;;;15.80;99.90;;;;;;5187270;28;20469;-74
2023/10/16 09:40:38;;;;;;;8.90;7.13;;;15.40;99.90;;;;;;5186521;28;20048;-75
2023/10/16 09:43:24;;;;;;;14.07;8.68;;;15.60;99.90;;;;;;5169668;28;20055;-75
2023/10/16 09:48:47;;;;;;;8.93;7.50;;;15.40;99.90;;;;;;5187231;28;20025;-80
2023/10/16 09:51:18;;;;;;;12.77;8.25;;;15.40;99.90;;;;;;5187258;28;20113;-74
2023/10/16 09:53:49;;;;;;;12.00;8.63;;;15.50;99.90;;;;;;5186696;28;20026;-76
2023/10/16 09:56:23;;;;;;;9.07;8.18;;;15.30;99.90;;;;;;5169110;28;20037;-75
2023/10/16 09:58:56;;;;;;;8.40;7.18;;;15.30;99.90;;;;;;5186475;28;20041;-75
2023/10/16 10:01:29;;;;;;;14.00;7.00;;;15.00;99.90;;;;;;5186778;28;20065;-75
2023/10/16 10:04:03;;;;;;;13.35;7.00;;;15.40;99.90;;;;;;5186978;28;20022;-75
2023/10/16 10:06:38;;;;;;;8.07;7.13;;;15.30;99.90;;;;;;5168875;28;20041;-75
2023/10/16 10:12:09;;;;;;;12.10;8.32;;;15.10;99.90;;;;;;5186288;28;20044;-75
2023/10/16 10:14:48;;;;;;;9.95;8.75;;;15.30;99.90;;;;;;5168936;28;20425;-75
2023/10/16 10:17:20;;;;;;;13.07;9.65;;;15.20;99.90;;;;;;5168095;28;20149;-78
2023/10/16 10:19:55;;;;;;;11.35;10.20;;;15.30;99.90;;;;;;5167677;28;20034;-75
2023/10/16 10:22:34;;;;;;;10.52;9.52;;;15.20;99.90;;;;;;5185491;28;20080;-79
2023/10/16 10:25:25;;;;;;;11.32;10.23;;;15.00;99.90;;;;;;5185357;28;20088;-75
2023/10/16 10:28:28;;;;;;;11.63;10.52;;;15.20;99.90;;;;;;5184658;28;20084;-75
2023/10/16 10:31:05;;;;;;;11.00;8.25;;;15.20;99.90;;;;;;5182762;28;20038;-76
2023/10/16 10:33:42;;;;;;;10.57;9.45;;;15.30;99.90;;;;;;5169018;28;20033;-75
2023/10/16 10:36:43;;;;;;;9.82;8.82;;;15.30;99.90;;;;;;5168933;28;20026;-76
2023/10/16 10:39:21;;;;;;;10.90;9.98;;;15.30;99.90;;;;;;5152866;28;20045;-76
2023/10/16 10:41:54;;;;;;;11.88;10.68;;;15.30;99.90;;;;;;5168852;28;20030;-76
2023/10/16 10:44:31;;;;;;;14.60;13.27;;;15.20;99.90;;;;;;5186090;28;20022;-76
2023/10/16 10:47:21;;;;;;;14.20;12.82;;;15.20;99.90;;;;;;5186287;28;20120;-76
2023/10/16 10:49:59;;;;;;;14.77;13.35;;;15.20;99.90;;;;;;5186359;28;20022;-75
2023/10/16 10:52:32;;;;;;;17.63;16.15;;;14.90;99.90;;;;;;5185249;28;20033;-75
2023/10/16 10:55:14;;;;;;;17.70;16.10;;;14.90;99.90;;;;;;5186341;28;20176;-76
2023/10/16 10:57:48;;;;;;;18.90;17.10;;;15.00;99.90;;;;;;5186058;28;20108;-75
2023/10/16 11:02:52;;;;;;;19.83;18.02;;;15.10;99.90;;;;;;5186049;28;20095;-75
2023/10/16 11:05:23;;;;;;;19.17;17.30;;;15.00;99.90;;;;;;5168651;28;20030;-76
2023/10/16 11:10:46;;;;;;;20.55;18.48;;;14.80;99.90;;;;;;5185817;28;20029;-75
2023/10/16 11:13:21;;;;;;;23.05;20.20;;;15.00;99.90;;;;;;5184549;28;20795;-76
2023/10/16 11:15:54;;;;;;;19.45;17.65;;;14.90;99.90;;;;;;5166950;28;20116;-76
2023/10/16 11:18:28;;;;;;;16.65;15.20;;;14.90;99.90;;;;;;5184094;28;20096;-75
2023/10/16 11:21:04;;;;;;;20.30;16.45;;;14.90;99.90;;;;;;5184343;28;20018;-76
2023/10/16 11:23:40;;;;;;;16.77;15.20;;;14.60;99.90;;;;;;5184527;28;20080;-75
2023/10/16 11:26:16;;;;;;;18.27;15.27;;;14.60;99.90;;;;;;5184457;28;20040;-75
2023/10/16 11:28:50;;;;;;;19.55;17.67;;;14.40;99.90;;;;;;5185125;28;20021;-76
2023/10/16 11:31:21;;;;;;;17.30;15.25;;;14.20;99.90;;;;;;5167767;28;20049;-75
2023/10/16 11:34:21;;;;;;;17.63;15.55;;;14.50;99.90;;;;;;5185335;28;20057;-75
2023/10/16 11:36:50;;;;;;;16.00;14.13;;;14.60;99.90;;;;;;5184698;28;20026;-79
2023/10/16 11:39:22;;;;;;;14.18;12.90;;;14.40;99.90;;;;;;5185434;28;20025;-75
2023/10/16 11:41:54;;;;;;;14.35;12.57;;;14.30;99.90;;;;;;5185148;28;20026;-78
2023/10/16 11:44:26;;;;;;;14.48;13.02;;;14.40;99.90;;;;;;5185176;28;20018;-75
2023/10/16 11:47:00;;;;;;;12.85;11.65;;;14.40;99.90;;;;;;5185436;28;20108;-78
2023/10/16 11:49:37;;;;;;;13.77;10.57;;;14.50;99.90;;;;;;5185253;28;20058;-75
2023/10/16 11:52:09;;;;;;;13.20;12.02;;;14.50;99.90;;;;;;5185090;28;20076;-77
2023/10/16 11:54:41;;;;;;;13.93;12.68;;;14.60;99.90;;;;;;5167710;28;20022;-75
2023/10/16 11:57:16;;;;;;;12.55;11.52;;;14.50;99.90;;;;;;5185282;28;20026;-74
2023/10/16 11:59:51;;;;;;;12.55;11.15;;;14.50;99.90;;;;;;5167458;28;20058;-75
2023/10/16 12:02:29;;;;;;;11.43;10.25;;;14.30;99.90;;;;;;5167727;28;20026;-75
2023/10/16 12:05:00;;;;;;;11.18;10.07;;;14.30;99.90;;;;;;5188245;28;20026;-75
2023/10/16 12:07:31;;;;;;;11.27;10.32;;;14.50;99.90;;;;;;5188748;28;20761;-76
2023/10/16 12:10:05;;;;;;;10.68;9.70;;;14.60;99.90;;;;;;5170504;28;20037;-74
2023/10/16 12:12:36;;;;;;;11.30;10.27;;;14.40;99.90;;;;;;5188523;28;20029;-75
2023/10/16 12:15:10;;;;;;;11.05;10.05;;;14.30;99.90;;;;;;5188012;28;20369;-75
2023/10/16 12:17:43;;;;;;;11.52;10.45;;;14.20;99.90;;;;;;5187855;28;20093;-75
2023/10/16 12:20:16;;;;;;;10.55;9.60;;;14.30;99.90;;;;;;5170530;28;20026;-75
2023/10/16 12:22:52;;;;;;;11.20;10.15;;;14.20;99.90;;;;;;5188143;28;20164;-74
2023/10/16 12:25:23;;;;;;;10.95;9.98;;;14.00;99.90;;;;;;5188700;28;20835;-75
2023/10/16 12:27:54;;;;;;;10.20;9.30;;;14.00;99.90;;;;;;5188779;28;20136;-75
2023/10/16 12:30:27;;;;;;;10.50;9.70;;;14.00;99.90;;;;;;5188583;28;20034;-76
2023/10/16 12:32:59;;;;;;;9.98;9.18;;;14.20;99.90;;;;;;5188802;28;20025;-78
2023/10/16 12:35:30;;;;;;;9.55;8.65;;;14.00;99.90;;;;;;5188549;28;20029;-77
2023/10/16 12:38:04;;;;;;;9.88;9.07;;;13.70;99.90;;;;;;5170907;28;20029;-73
2023/10/16 12:40:37;;;;;;;10.30;9.40;;;14.00;99.90;;;;;;5170761;28;20026;-76
2023/10/16 12:43:08;;;;;;;10.95;10.13;;;13.90;99.90;;;;;;5170771;28;20075;-77
2023/10/16 12:45:40;;;;;;;11.63;10.55;;;14.10;99.90;;;;;;5170629;28;20055;-77
2023/10/16 12:48:11;;;;;;;10.90;10.02;;;14.10;99.90;;;;;;5188595;28;20466;-76
2023/10/16 12:50:42;;;;;;;8.80;8.00;;;13.80;99.90;;;;;;5188240;28;20038;-76
2023/10/16 12:53:14;;;;;;;15.32;13.88;;;14.00;99.90;;;;;;5188241;28;20014;-77
2023/10/16 12:55:49;;;;;;;11.75;10.65;;;13.90;99.90;;;;;;5170589;28;20030;-77
2023/10/16 12:58:19;;;;;;;12.35;11.52;;;14.10;99.90;;;;;;5170280;28;20386;-77
2023/10/16 13:00:50;;;;;;;12.27;11.18;;;14.00;99.90;;;;;;5187240;28;20057;-77
2023/10/16 13:03:22;;;;;;;11.98;11.10;;;14.00;99.90;;;;;;5170185;28;20030;-78
2023/10/16 13:05:53;;;;;;;13.25;12.18;;;14.10;99.90;;;;;;5186978;28;20041;-77
2023/10/16 13:08:26;;;;;;;14.25;13.15;;;14.20;99.90;;;;;;5168957;28;20079;-80
2023/10/16 13:10:57;;;;;;;14.60;13.15;;;14.10;99.90;;;;;;5187153;28;20389;-77
2023/10/16 13:13:27;;;;;;;13.75;12.75;;;13.90;99.90;;;;;;5186792;28;20041;-77
2023/10/16 13:15:58;;;;;;;12.52;11.45;;;14.10;99.90;;;;;;5167853;28;20026;-77
2023/10/16 13:18:30;;;;;;;12.95;12.13;;;14.20;99.90;;;;;;5186686;28;20062;-77
2023/10/16 13:21:06;;;;;;;11.73;10.82;;;14.30;99.90;;;;;;5170123;28;20432;-77
2023/10/16 13:23:37;;;;;;;12.57;11.48;;;14.30;99.90;;;;;;5187916;28;20033;-77
2023/10/16 13:26:08;;;;;;;12.23;11.10;;;14.10;99.90;;;;;;5187867;28;20030;-76
2023/10/16 13:28:41;;;;;;;15.05;12.35;;;14.20;99.90;;;;;;5187078;28;20041;-76
2023/10/16 13:31:11;;;;;;;12.73;11.68;;;14.30;99.90;;;;;;5187372;28;20030;-77
2023/10/16 13:33:44;;;;;;;11.88;10.93;;;14.30;99.90;;;;;;5169895;28;20033;-77
2023/10/16 13:36:17;;;;;;;10.52;9.60;;;14.40;99.90;;;;;;5187316;28;20025;-76
2023/10/16 13:38:51;;;;;;;10.88;9.82;;;14.40;99.90;;;;;;5187187;28;20057;-76
2023/10/16 13:41:23;;;;;;;13.18;12.05;;;14.10;99.90;;;;;;5187306;28;20022;-77
2023/10/16 13:43:55;;;;;;;12.00;11.10;;;14.30;99.90;;;;;;5169744;28;20099;-76
2023/10/16 13:46:26;;;;;;;12.30;11.27;;;14.30;99.90;;;;;;5169369;28;20038;-77
2023/10/16 13:48:57;;;;;;;11.68;10.68;;;14.30;99.90;;;;;;5187182;28;20033;-77
2023/10/16 13:51:28;;;;;;;11.77;10.80;;;14.30;99.90;;;;;;5187282;28;20018;-76
2023/10/16 13:53:59;;;;;;;11.80;10.80;;;14.30;99.90;;;;;;5169388;28;20034;-77
2023/10/16 13:56:30;;;;;;;10.30;9.40;;;14.40;99.90;;;;;;5186579;28;20026;-76
2023/10/16 13:59:03;;;;;;;12.27;11.30;;;14.10;99.90;;;;;;5168656;28;20049;-77
2023/10/16 14:01:43;;;;;;;12.43;11.23;;;14.30;99.90;;;;;;5168474;28;20088;-76
2023/10/16 14:04:15;;;;;;;11.35;10.50;;;14.30;99.90;;;;;;5186199;28;20458;-78
2023/10/16 14:06:51;;;;;;;11.77;11.00;;;14.20;99.90;;;;;;5186014;28;20037;-78
2023/10/16 14:09:49;;;;;;;12.57;11.65;;;14.10;99.90;;;;;;5185965;28;20045;-76
2023/10/16 14:12:17;;;;;;;12.80;11.73;;;14.20;99.90;;;;;;5184917;28;20474;-76
2023/10/16 14:14:51;;;;;;;13.40;12.45;;;14.30;99.90;;;;;;5168102;28;20072;-76
2023/10/16 14:17:21;;;;;;;15.82;13.48;;;14.20;99.90;;;;;;5186572;28;20029;-76
2023/10/16 14:19:52;;;;;;;11.77;10.85;;;14.30;99.90;;;;;;5186649;28;20030;-77
2023/10/16 14:22:29;;;;;;;12.45;11.57;;;14.30;99.90;;;;;;5186594;28;20022;-77
2023/10/16 14:25:05;;;;;;;10.60;9.90;;;14.10;99.90;;;;;;5186294;28;20030;-77
2023/10/16 14:27:39;;;;;;;10.93;10.02;;;14.20;99.90;;;;;;5186206;28;20033;-77
2023/10/16 14:30:11;;;;;;;10.88;9.93;;;14.30;99.90;;;;;;5186387;28;20034;-78
2023/10/16 14:32:42;;;;;;;19.50;17.42;;;14.10;99.90;;;;;;5186251;28;20319;-77
2023/10/16 14:35:12;;;;;;;11.57;10.63;;;14.20;99.90;;;;;;5186303;28;20253;-76
2023/10/16 14:37:43;;;;;;;17.88;16.23;;;14.20;99.90;;;;;;5185840;28;20030;-77
2023/10/16 14:40:15;;;;;;;18.05;16.70;;;13.90;99.90;;;;;;5186018;28;20026;-76
2023/10/16 14:42:46;;;;;;;14.05;12.95;;;14.10;99.90;;;;;;5168524;28;20026;-77
2023/10/16 14:45:17;;;;;;;17.80;16.05;;;14.10;99.90;;;;;;5185546;28;20073;-77
2023/10/16 14:47:49;;;;;;;13.50;10.57;;;14.10;99.90;;;;;;5186383;28;20021;-76
2023/10/16 14:50:20;;;;;;;18.55;16.77;;;14.20;99.90;;;;;;5168265;28;20386;-76
2023/10/16 14:52:51;;;;;;;16.88;15.50;;;14.00;99.90;;;;;;5167801;28;20030;-77
2023/10/16 14:55:22;;;;;;;16.30;14.85;;;14.10;99.90;;;;;;5167311;28;20038;-78
2023/10/16 14:57:55;;;;;;;16.67;15.25;;;14.10;99.90;;;;;;5166338;28;20049;-76
2023/10/16 15:00:32;;;;;;;25.20;21.10;;;14.10;99.90;;;;;;5166528;28;20038;-77
2023/10/16 15:03:10;;;;;;;15.70;14.20;;;14.20;99.90;;;;;;5184881;28;20448;-76
2023/10/16 15:05:43;;;;;;;18.45;17.08;;;13.80;99.90;;;;;;5167080;28;20033;-77
2023/10/16 15:08:14;;;;;;;152.60;103.22;;;13.90;99.90;;;;;;5184996;28;20029;-76
2023/10/16 15:10:47;;;;;;;24.77;22.10;;;14.10;99.90;;;;;;5185024;28;20049;-78
2023/10/16 15:13:21;;;;;;;14.52;13.48;;;13.90;99.90;;;;;;5185680;28;20034;-76